Terminal Aerodrome Forecast
Issued by NWS

Home | Current Version | Previous Version | Text Only | Print | Product List | Glossary On
Versions: 1 2 3 4 5 6 7 8 9 10 11 12 13 14 15 16
000
FTUS46 KMTR 181100
TAFSJC
TAF
KSJC 181132Z 1812/1912 15008KT P6SM VCSH OVC024
      TEMPO 1813/1817 VRB04KT P6SM -SHRA BKN019 OVC025
     FM181800 29009KT P6SM VCSH SCT025 BKN050
     FM182300 29012KT P6SM SCT030 BKN050
     FM190300 31008KT P6SM BKN030
     FM190700 VRB03KT P6SM OVC015=

USA.gov is the U.S. government's official web portal to all federal, state and local government web resources and services.